Time,TemperatureF,DewpointF,PressureIn,WindDirection,WindDirectionDegrees,WindSpeedMPH,WindSpeedGustMPH,Humidity,HourlyPrecipIn,Conditions,Clouds,dailyrainin,SoftwareType,DateUTC
2013-05-02 00:01:00,55.0,51.0,30.11,West,280,0.0,-999.0,86,-99.99,,,-99.99,,2013-05-02 07:01:00,
2013-05-02 00:11:00,55.0,51.0,30.11,West,280,0.0,-999.0,86,-99.99,,,-99.99,,2013-05-02 07:11:00,
2013-05-02 00:21:00,55.0,51.0,30.11,West,281,0.0,-999.0,86,-99.99,,,-99.99,,2013-05-02 07:21:00,
2013-05-02 00:31:00,54.0,50.0,30.12,West,281,0.0,-999.0,87,-99.99,,,-99.99,,2013-05-02 07:31:00,
2013-05-02 00:41:00,54.0,50.0,30.12,West,281,0.0,-999.0,87,-99.99,,,-99.99,,2013-05-02 07:41:00,
2013-05-02 00:52:00,54.0,51.0,30.12,West,281,0.0,-999.0,88,-99.99,,,-99.99,,2013-05-02 07:52:00,
2013-05-02 01:02:00,53.0,50.0,30.11,West,280,0.0,-999.0,88,-99.99,,,-99.99,,2013-05-02 08:02:00,
2013-05-02 01:11:00,53.0,50.0,30.11,West,280,0.0,-999.0,88,-99.99,,,-99.99,,2013-05-02 08:11:00,
2013-05-02 01:21:00,53.0,50.0,30.11,West,281,0.0,-999.0,88,-99.99,,,-99.99,,2013-05-02 08:21:00,
2013-05-02 01:32:00,53.0,50.0,30.11,West,281,0.0,-999.0,88,-99.99,,,-99.99,,2013-05-02 08:32:00,
2013-05-02 01:42:00,53.0,50.0,30.11,West,281,0.0,-999.0,88,-99.99,,,-99.99,,2013-05-02 08:42:00,
2013-05-02 01:52:00,52.0,49.0,30.11,West,281,0.0,-999.0,88,-99.99,,,-99.99,,2013-05-02 08:52:00,
2013-05-02 02:01:00,51.0,48.0,30.11,West,281,0.0,-999.0,88,-99.99,,,-99.99,,2013-05-02 09:01:00,
2013-05-02 02:11:00,51.0,48.0,30.11,West,281,0.0,-999.0,88,-99.99,,,-99.99,,2013-05-02 09:11:00,
2013-05-02 02:21:00,51.0,48.0,30.11,West,281,0.0,-999.0,88,-99.99,,,-99.99,,2013-05-02 09:21:00,
2013-05-02 02:32:00,51.0,48.0,30.11,West,281,0.0,-999.0,89,-99.99,,,-99.99,,2013-05-02 09:32:00,
2013-05-02 02:42:00,51.0,48.0,30.11,West,281,0.0,-999.0,89,-99.99,,,-99.99,,2013-05-02 09:42:00,
2013-05-02 02:52:00,50.0,47.0,30.11,West,280,0.0,-999.0,89,-99.99,,,-99.99,,2013-05-02 09:52:00,
2013-05-02 03:02:00,50.0,47.0,30.11,West,280,0.0,-999.0,89,-99.99,,,-99.99,,2013-05-02 10:02:00,
2013-05-02 03:12:00,50.0,47.0,30.11,West,280,0.0,-999.0,89,-99.99,,,-99.99,,2013-05-02 10:12:00,
2013-05-02 03:22:00,50.0,47.0,30.11,West,280,0.0,-999.0,90,-99.99,,,-99.99,,2013-05-02 10:22:00,
2013-05-02 03:32:00,50.0,47.0,30.11,West,281,0.0,-999.0,90,-99.99,,,-99.99,,2013-05-02 10:32:00,
2013-05-02 03:42:00,50.0,47.0,30.11,West,281,0.0,-999.0,90,-99.99,,,-99.99,,2013-05-02 10:42:00,
2013-05-02 03:52:00,49.0,46.0,30.11,West,280,0.0,-999.0,89,-99.99,,,-99.99,,2013-05-02 10:52:00,
2013-05-02 04:02:00,49.0,46.0,30.11,West,281,0.0,-999.0,90,-99.99,,,-99.99,,2013-05-02 11:02:00,
2013-05-02 04:11:00,49.0,46.0,30.11,West,281,0.0,-999.0,90,-99.99,,,-99.99,,2013-05-02 11:11:00,
2013-05-02 04:21:00,49.0,46.0,30.11,West,281,0.0,-999.0,90,-99.99,,,-99.99,,2013-05-02 11:21:00,
2013-05-02 04:31:00,49.0,46.0,30.11,West,281,0.0,-999.0,90,-99.99,,,-99.99,,2013-05-02 11:31:00,
2013-05-02 04:41:00,49.0,46.0,30.11,West,281,0.0,-999.0,90,-99.99,,,-99.99,,2013-05-02 11:41:00,
2013-05-02 04:52:00,49.0,46.0,30.11,West,281,0.0,-999.0,90,-99.99,,,-99.99,,2013-05-02 11:52:00,
2013-05-02 05:01:00,49.0,46.0,30.10,West,281,0.0,-999.0,90,-99.99,,,-99.99,,2013-05-02 12:01:00,
2013-05-02 05:11:00,49.0,46.0,30.10,West,281,0.0,-999.0,90,-99.99,,,-99.99,,2013-05-02 12:11:00,
2013-05-02 05:21:00,49.0,46.0,30.10,West,281,0.0,-999.0,90,-99.99,,,-99.99,,2013-05-02 12:21:00,
2013-05-02 05:32:00,48.0,45.0,30.10,West,281,0.0,-999.0,90,-99.99,,,-99.99,,2013-05-02 12:32:00,
2013-05-02 05:41:00,48.0,45.0,30.10,West,281,0.0,-999.0,90,-99.99,,,-99.99,,2013-05-02 12:41:00,
2013-05-02 05:52:00,48.0,45.0,30.10,West,281,0.0,-999.0,91,-99.99,,,-99.99,,2013-05-02 12:52:00,
2013-05-02 06:01:00,59.0,34.0,30.09,East,96,1.0,-999.0,39,-99.99,,,-99.99,,2013-05-02 13:01:00,
2013-05-02 06:11:00,59.0,34.0,30.09,East,96,1.0,-999.0,39,-99.99,,,-99.99,,2013-05-02 13:11:00,
2013-05-02 06:21:00,70.0,25.0,30.11,ENE,73,0.0,-999.0,18,-99.99,,,-99.99,,2013-05-02 13:21:00,
2013-05-02 06:31:00,73.0,21.0,30.11,ENE,78,2.0,-999.0,14,-99.99,,,-99.99,,2013-05-02 13:31:00,
2013-05-02 06:52:00,73.0,21.0,30.12,ENE,72,0.0,-999.0,14,-99.99,,,-99.99,,2013-05-02 13:52:00,
2013-05-02 07:02:00,74.0,22.0,30.12,NE,45,1.0,-999.0,14,-99.99,,,-99.99,,2013-05-02 14:02:00,
2013-05-02 07:21:00,74.0,20.0,30.14,ESE,104,0.0,-999.0,13,-99.99,,,-99.99,,2013-05-02 14:21:00,
2013-05-02 07:31:00,75.0,21.0,30.14,SE,142,0.0,-999.0,13,-99.99,,,-99.99,,2013-05-02 14:31:00,
2013-05-02 07:52:00,75.0,21.0,30.14,ENE,66,0.0,-999.0,13,-99.99,,,-99.99,,2013-05-02 14:52:00,
2013-05-02 08:02:00,76.0,20.0,30.15,ENE,76,0.0,-999.0,12,-99.99,,,-99.99,,2013-05-02 15:02:00,
2013-05-02 08:11:00,76.0,20.0,30.15,ENE,76,0.0,-999.0,12,-99.99,,,-99.99,,2013-05-02 15:11:00,
2013-05-02 08:21:00,77.0,20.0,30.15,SE,126,1.0,-999.0,12,-99.99,,,-99.99,,2013-05-02 15:21:00,
2013-05-02 08:32:00,78.0,21.0,30.16,North,11,1.0,-999.0,12,-99.99,,,-99.99,,2013-05-02 15:32:00,
2013-05-02 08:43:00,78.0,21.0,30.16,North,11,1.0,-999.0,12,-99.99,,,-99.99,,2013-05-02 15:43:00,
2013-05-02 09:02:00,79.0,20.0,30.16,ENE,67,2.0,-999.0,11,-99.99,,,-99.99,,2013-05-02 16:02:00,
2013-05-02 09:12:00,79.0,20.0,30.16,ENE,67,2.0,-999.0,11,-99.99,,,-99.99,,2013-05-02 16:12:00,
2013-05-02 09:22:00,80.0,21.0,30.16,East,81,4.0,-999.0,11,-99.99,,,-99.99,,2013-05-02 16:22:00,
2013-05-02 09:32:00,80.0,19.0,30.16,East,88,4.0,-999.0,10,-99.99,,,-99.99,,2013-05-02 16:32:00,
2013-05-02 09:43:00,80.0,19.0,30.16,East,88,4.0,-999.0,10,-99.99,,,-99.99,,2013-05-02 16:43:00,
2013-05-02 09:52:00,81.0,22.0,30.17,NE,46,4.0,-999.0,11,-99.99,,,-99.99,,2013-05-02 16:52:00,
2013-05-02 10:02:00,81.0,19.0,30.17,NNE,33,3.0,-999.0,10,-99.99,,,-99.99,,2013-05-02 17:02:00,
2013-05-02 10:12:00,81.0,19.0,30.17,NNE,33,3.0,-999.0,10,-99.99,,,-99.99,,2013-05-02 17:12:00,
2013-05-02 10:22:00,82.0,20.0,30.16,NE,41,4.0,-999.0,10,-99.99,,,-99.99,,2013-05-02 17:22:00,
2013-05-02 10:31:00,82.0,20.0,30.17,NE,51,5.0,-999.0,10,-99.99,,,-99.99,,2013-05-02 17:31:00,
2013-05-02 10:42:00,82.0,20.0,30.17,NE,51,5.0,-999.0,10,-99.99,,,-99.99,,2013-05-02 17:42:00,
2013-05-02 10:52:00,82.0,20.0,30.17,East,86,4.0,-999.0,10,-99.99,,,-99.99,,2013-05-02 17:52:00,
2013-05-02 11:01:00,82.0,20.0,30.17,NE,48,6.0,-999.0,10,-99.99,,,-99.99,,2013-05-02 18:01:00,
2013-05-02 11:11:00,82.0,20.0,30.17,NE,48,6.0,-999.0,10,-99.99,,,-99.99,,2013-05-02 18:11:00,
2013-05-02 11:21:00,83.0,21.0,30.17,NE,41,5.0,-999.0,10,-99.99,,,-99.99,,2013-05-02 18:21:00,
2013-05-02 11:31:00,84.0,22.0,30.17,NE,56,4.0,-999.0,10,-99.99,,,-99.99,,2013-05-02 18:31:00,
2013-05-02 11:41:00,84.0,22.0,30.17,NE,56,4.0,-999.0,10,-99.99,,,-99.99,,2013-05-02 18:41:00,
2013-05-02 11:52:00,84.0,22.0,30.16,East,98,3.0,-999.0,10,-99.99,,,-99.99,,2013-05-02 18:52:00,
2013-05-02 12:01:00,85.0,22.0,30.16,NE,51,4.0,-999.0,10,-99.99,,,-99.99,,2013-05-02 19:01:00,
2013-05-02 12:11:00,85.0,22.0,30.16,NE,51,4.0,-999.0,10,-99.99,,,-99.99,,2013-05-02 19:11:00,
2013-05-02 12:21:00,86.0,21.0,30.16,North,360,3.0,-999.0,9,-99.99,,,-99.99,,2013-05-02 19:21:00,
2013-05-02 12:31:00,86.0,21.0,30.15,NE,42,4.0,-999.0,9,-99.99,,,-99.99,,2013-05-02 19:31:00,
2013-05-02 12:41:00,86.0,21.0,30.15,NE,42,4.0,-999.0,9,-99.99,,,-99.99,,2013-05-02 19:41:00,
2013-05-02 12:52:00,86.0,21.0,30.14,NE,36,5.0,-999.0,9,-99.99,,,-99.99,,2013-05-02 19:52:00,
2013-05-02 13:01:00,86.0,21.0,30.14,NE,52,5.0,-999.0,9,-99.99,,,-99.99,,2013-05-02 20:01:00,
2013-05-02 13:11:00,86.0,21.0,30.14,NE,52,5.0,-999.0,9,-99.99,,,-99.99,,2013-05-02 20:11:00,
2013-05-02 13:32:00,87.0,21.0,30.13,East,80,5.0,-999.0,9,-99.99,,,-99.99,,2013-05-02 20:32:00,
2013-05-02 13:41:00,87.0,21.0,30.13,East,80,5.0,-999.0,9,-99.99,,,-99.99,,2013-05-02 20:41:00,
2013-05-02 13:52:00,88.0,19.0,30.12,NNW,341,3.0,-999.0,8,-99.99,,,-99.99,,2013-05-02 20:52:00,
2013-05-02 14:01:00,89.0,20.0,30.12,NE,41,3.0,-999.0,8,-99.99,,,-99.99,,2013-05-02 21:01:00,
2013-05-02 14:11:00,89.0,20.0,30.12,NE,41,3.0,-999.0,8,-99.99,,,-99.99,,2013-05-02 21:11:00,
2013-05-02 14:21:00,89.0,23.0,30.11,NNE,26,2.0,-999.0,9,-99.99,,,-99.99,,2013-05-02 21:21:00,
2013-05-02 14:33:00,90.0,24.0,30.11,ENE,61,2.0,-999.0,9,-99.99,,,-99.99,,2013-05-02 21:33:00,
2013-05-02 14:53:00,91.0,22.0,30.11,ESE,106,2.0,-999.0,8,-99.99,,,-99.99,,2013-05-02 21:53:00,
2013-05-02 15:02:00,90.0,21.0,30.10,East,92,3.0,-999.0,8,-99.99,,,-99.99,,2013-05-02 22:02:00,
2013-05-02 15:12:00,90.0,21.0,30.10,East,92,3.0,-999.0,8,-99.99,,,-99.99,,2013-05-02 22:12:00,
2013-05-02 15:22:00,90.0,21.0,30.09,East,84,4.0,-999.0,8,-99.99,,,-99.99,,2013-05-02 22:22:00,
2013-05-02 15:32:00,91.0,22.0,30.08,NE,55,2.0,-999.0,8,-99.99,,,-99.99,,2013-05-02 22:32:00,
2013-05-02 15:52:00,91.0,22.0,30.08,SSE,155,2.0,-999.0,8,-99.99,,,-99.99,,2013-05-02 22:52:00,
2013-05-02 16:02:00,91.0,18.0,30.07,ENE,64,2.0,-999.0,7,-99.99,,,-99.99,,2013-05-02 23:02:00,
2013-05-02 16:11:00,91.0,18.0,30.07,ENE,64,2.0,-999.0,7,-99.99,,,-99.99,,2013-05-02 23:11:00,
2013-05-02 16:22:00,92.0,22.0,30.06,NE,46,1.0,-999.0,8,-99.99,,,-99.99,,2013-05-02 23:22:00,
2013-05-02 16:31:00,91.0,18.0,30.06,North,355,3.0,-999.0,7,-99.99,,,-99.99,,2013-05-02 23:31:00,
2013-05-02 16:42:00,91.0,18.0,30.06,North,355,3.0,-999.0,7,-99.99,,,-99.99,,2013-05-02 23:42:00,
2013-05-02 16:52:00,91.0,18.0,30.06,ENE,59,2.0,-999.0,7,-99.99,,,-99.99,,2013-05-02 23:52:00,
2013-05-02 17:01:00,92.0,19.0,30.05,ENE,69,1.0,-999.0,7,-99.99,,,-99.99,,2013-05-03 00:01:00,
2013-05-02 17:11:00,92.0,19.0,30.05,ENE,69,1.0,-999.0,7,-99.99,,,-99.99,,2013-05-03 00:11:00,
2013-05-02 17:21:00,91.0,18.0,30.05,NE,49,1.0,-999.0,7,-99.99,,,-99.99,,2013-05-03 00:21:00,
2013-05-02 17:31:00,92.0,19.0,30.04,East,82,1.0,-999.0,7,-99.99,,,-99.99,,2013-05-03 00:31:00,
2013-05-02 17:41:00,92.0,19.0,30.04,East,82,1.0,-999.0,7,-99.99,,,-99.99,,2013-05-03 00:41:00,
2013-05-02 17:52:00,91.0,18.0,30.03,East,85,1.0,-999.0,7,-99.99,,,-99.99,,2013-05-03 00:52:00,
2013-05-02 18:01:00,90.0,18.0,30.03,NE,44,1.0,-999.0,7,-99.99,,,-99.99,,2013-05-03 01:01:00,
2013-05-02 18:11:00,90.0,18.0,30.03,NE,44,1.0,-999.0,7,-99.99,,,-99.99,,2013-05-03 01:11:00,
2013-05-02 18:21:00,90.0,18.0,30.03,NE,40,2.0,-999.0,7,-99.99,,,-99.99,,2013-05-03 01:21:00,
2013-05-02 18:31:00,90.0,18.0,30.03,East,84,0.0,-999.0,7,-99.99,,,-99.99,,2013-05-03 01:31:00,
2013-05-02 18:41:00,90.0,18.0,30.03,East,84,0.0,-999.0,7,-99.99,,,-99.99,,2013-05-03 01:41:00,
2013-05-02 18:52:00,89.0,17.0,30.03,East,94,1.0,-999.0,7,-99.99,,,-99.99,,2013-05-03 01:52:00,
2013-05-02 19:01:00,88.0,16.0,30.03,NNW,342,0.0,-999.0,7,-99.99,,,-99.99,,2013-05-03 02:01:00,
2013-05-02 19:11:00,88.0,16.0,30.03,NNW,342,0.0,-999.0,7,-99.99,,,-99.99,,2013-05-03 02:11:00,
2013-05-02 19:21:00,87.0,16.0,30.03,NE,36,0.0,-999.0,7,-99.99,,,-99.99,,2013-05-03 02:21:00,
2013-05-02 19:31:00,86.0,15.0,30.03,ENE,74,0.0,-999.0,7,-99.99,,,-99.99,,2013-05-03 02:31:00,
2013-05-02 19:41:00,86.0,15.0,30.03,ENE,74,0.0,-999.0,7,-99.99,,,-99.99,,2013-05-03 02:41:00,
2013-05-02 19:52:00,85.0,14.0,30.04,ENE,75,0.0,-999.0,7,-99.99,,,-99.99,,2013-05-03 02:52:00,
2013-05-02 20:01:00,83.0,16.0,30.04,ENE,64,0.0,-999.0,8,-99.99,,,-99.99,,2013-05-03 03:01:00,
2013-05-02 20:11:00,83.0,16.0,30.04,ENE,64,0.0,-999.0,8,-99.99,,,-99.99,,2013-05-03 03:11:00,
2013-05-02 20:32:00,73.0,47.0,30.04,SW,227,0.0,-999.0,40,-99.99,,,-99.99,,2013-05-03 03:32:00,
2013-05-02 20:53:00,70.0,48.0,30.05,SW,227,0.0,-999.0,46,-99.99,,,-99.99,,2013-05-03 03:53:00,
2013-05-02 21:02:00,68.0,49.0,30.05,SW,227,0.0,-999.0,50,-99.99,,,-99.99,,2013-05-03 04:02:00,
2013-05-02 21:22:00,67.0,48.0,30.05,SW,227,0.0,-999.0,51,-99.99,,,-99.99,,2013-05-03 04:22:00,
2013-05-02 21:32:00,66.0,48.0,30.05,SW,227,0.0,-999.0,52,-99.99,,,-99.99,,2013-05-03 04:32:00,
2013-05-02 21:53:00,64.0,48.0,30.05,SW,227,0.0,-999.0,56,-99.99,,,-99.99,,2013-05-03 04:53:00,
2013-05-02 22:02:00,63.0,48.0,30.05,SW,227,0.0,-999.0,59,-99.99,,,-99.99,,2013-05-03 05:02:00,
2013-05-02 22:21:00,62.0,48.0,30.05,SW,227,0.0,-999.0,60,-99.99,,,-99.99,,2013-05-03 05:21:00,
2013-05-02 22:32:00,62.0,49.0,30.05,SW,227,0.0,-999.0,62,-99.99,,,-99.99,,2013-05-03 05:32:00,
2013-05-02 22:52:00,61.0,48.0,30.05,SW,227,0.0,-999.0,63,-99.99,,,-99.99,,2013-05-03 05:52:00,
2013-05-02 23:01:00,59.0,47.0,30.05,SW,230,0.0,-999.0,64,-99.99,,,-99.99,,2013-05-03 06:01:00,
2013-05-02 23:21:00,59.0,48.0,30.05,SW,230,0.0,-999.0,66,-99.99,,,-99.99,,2013-05-03 06:21:00,
2013-05-02 23:31:00,59.0,48.0,30.05,SW,230,0.0,-999.0,66,-99.99,,,-99.99,,2013-05-03 06:31:00,
2013-05-02 23:52:00,60.0,49.0,30.04,SW,230,0.0,-999.0,66,-99.99,,,-99.99,,2013-05-03 06:52:00,